Terminal Aerodrome Forecast
Issued by NWS San Angelo, TX

Home | Current Version | Previous Version | Text Only | Print | Product List | Glossary On
Versions: 1 2 3 4 5 6 7 8 9 10 11 12
000
FTUS44 KSJT 290540
TAFABI
TAF
KABI 290540Z 2906/3006 14010KT P6SM BKN150
     FM291100 20007KT P6SM BKN120
     FM291700 26009KT P6SM SCT100
     FM292300 VRB05KT P6SM SCT120=

USA.gov is the U.S. government's official web portal to all federal, state and local government web resources and services.